createdAt,value
2023-08-05T00:00:27.847Z,10.70
2023-08-05T00:03:30.153Z,15.63
2023-08-05T00:06:32.992Z,10.30
2023-08-05T00:09:36.092Z,8.93
2023-08-05T00:12:39.466Z,6.55
2023-08-05T00:15:41.841Z,11.75
2023-08-05T00:18:44.119Z,21.73
2023-08-05T00:21:46.405Z,11.97
2023-08-05T00:24:48.941Z,12.73
2023-08-05T00:27:51.232Z,13.98
2023-08-05T00:30:53.765Z,12.65
2023-08-05T00:33:56.076Z,12.70
2023-08-05T00:36:58.300Z,12.67
2023-08-05T00:40:01.714Z,11.57
2023-08-05T00:43:04.530Z,15.88
2023-08-05T00:46:07.075Z,25.70
2023-08-05T00:49:09.749Z,19.83
2023-08-05T00:52:13.202Z,22.63
2023-08-05T00:55:15.929Z,21.65
2023-08-05T00:58:18.328Z,20.38
2023-08-05T01:01:20.775Z,17.65
2023-08-05T01:04:23.302Z,19.20
2023-08-05T01:07:25.985Z,18.07
2023-08-05T01:10:29.036Z,20.95
2023-08-05T01:13:32.150Z,19.90
2023-08-05T01:16:34.515Z,15.57
2023-08-05T01:19:37.744Z,12.40
2023-08-05T01:22:44.686Z,14.47
2023-08-05T01:25:47.443Z,11.43
2023-08-05T01:28:50.900Z,10.23
2023-08-05T01:31:54.536Z,9.45
2023-08-05T01:34:58.240Z,9.53
2023-08-05T01:38:01.181Z,12.17
2023-08-05T01:41:04.595Z,12.00
2023-08-05T01:44:09.517Z,11.07
2023-08-05T01:47:12.726Z,12.13
2023-08-05T01:50:15.278Z,11.90
2023-08-05T01:53:17.565Z,11.90
2023-08-05T01:56:19.840Z,13.98
2023-08-05T01:59:22.057Z,11.95
2023-08-05T02:02:24.703Z,11.30
2023-08-05T02:05:27.120Z,13.57
2023-08-05T02:08:29.491Z,24.90
2023-08-05T02:11:32.144Z,16.73
2023-08-05T02:14:34.642Z,18.42
2023-08-05T02:17:36.950Z,17.17
2023-08-05T02:20:39.756Z,16.07
2023-08-05T02:23:42.070Z,17.20
2023-08-05T02:26:44.459Z,16.63
2023-08-05T02:29:46.708Z,16.25
2023-08-05T02:32:49.205Z,16.17
2023-08-05T02:35:58.510Z,18.40
2023-08-05T02:39:01.676Z,14.67
2023-08-05T02:42:05.195Z,16.17
2023-08-05T02:45:08.999Z,16.60
2023-08-05T02:48:12.458Z,15.18
2023-08-05T02:51:15.601Z,15.03
2023-08-05T02:54:18.455Z,13.37
2023-08-05T02:57:20.784Z,14.70
2023-08-05T03:00:23.263Z,15.90
2023-08-05T03:03:25.590Z,16.55
2023-08-05T03:06:27.937Z,16.23
2023-08-05T03:09:30.240Z,17.30
2023-08-05T03:12:32.697Z,18.73
2023-08-05T03:15:35.779Z,17.90
2023-08-05T03:18:46.498Z,18.40
2023-08-05T03:21:48.983Z,19.90
2023-08-05T03:24:51.372Z,19.73
2023-08-05T03:27:53.971Z,22.58
2023-08-05T03:30:58.041Z,22.20
2023-08-05T03:34:03.375Z,21.88
2023-08-05T03:37:08.260Z,20.23
2023-08-05T03:40:11.001Z,18.50
2023-08-05T03:43:13.299Z,18.52
2023-08-05T03:46:15.654Z,18.65
2023-08-05T03:49:18.144Z,18.73
2023-08-05T03:52:21.072Z,19.60
2023-08-05T03:55:23.375Z,20.90
2023-08-05T03:58:27.451Z,21.33
2023-08-05T04:01:31.757Z,20.60
2023-08-05T04:04:34.216Z,18.33
2023-08-05T04:07:36.979Z,16.43
2023-08-05T04:10:42.052Z,18.83
2023-08-05T04:13:46.305Z,17.23
2023-08-05T04:16:53.150Z,18.15
2023-08-05T04:19:55.489Z,21.08
2023-08-05T04:22:57.770Z,20.23
2023-08-05T04:26:01.235Z,20.80
2023-08-05T04:29:04.326Z,20.27
2023-08-05T04:32:06.941Z,21.55
2023-08-05T04:35:09.619Z,21.90
2023-08-05T04:38:11.921Z,20.57
2023-08-05T04:41:14.244Z,21.73
2023-08-05T04:44:16.629Z,20.88
2023-08-05T04:47:19.017Z,20.10
2023-08-05T04:50:21.380Z,20.67
2023-08-05T04:53:23.588Z,19.43
2023-08-05T04:56:26.437Z,17.30
2023-08-05T04:59:28.640Z,14.90
2023-08-05T05:02:30.986Z,13.65
2023-08-05T05:05:34.852Z,12.75
2023-08-05T05:08:37.068Z,12.30
2023-08-05T05:11:39.469Z,10.90
2023-08-05T05:14:47.989Z,11.07
2023-08-05T05:17:51.865Z,11.07
2023-08-05T05:20:55.974Z,12.30
2023-08-05T05:23:58.390Z,11.77
2023-08-05T05:27:00.624Z,9.97
2023-08-05T05:30:03.660Z,10.32
2023-08-05T05:33:05.991Z,11.38
2023-08-05T05:36:08.460Z,10.23
2023-08-05T05:39:10.706Z,10.90
2023-08-05T05:42:13.149Z,10.77
2023-08-05T05:45:15.450Z,9.40
2023-08-05T05:48:19.197Z,12.50
2023-08-05T05:51:21.427Z,10.63
2023-08-05T05:54:23.871Z,10.80
2023-08-05T05:57:26.122Z,10.33
2023-08-05T06:00:28.638Z,10.55
2023-08-05T06:03:34.194Z,9.55
2023-08-05T06:06:37.422Z,10.07
2023-08-05T06:09:40.413Z,9.17
2023-08-05T06:12:43.883Z,8.13
2023-08-05T06:15:46.178Z,7.15
2023-08-05T06:18:48.526Z,5.22
2023-08-05T06:21:50.993Z,5.03
2023-08-05T06:24:53.476Z,5.17
2023-08-05T06:27:55.959Z,5.43
2023-08-05T06:30:58.467Z,4.50
2023-08-05T06:34:00.777Z,5.32
2023-08-05T06:37:03.003Z,4.20
2023-08-05T06:40:05.844Z,5.03
2023-08-05T06:43:08.167Z,4.87
2023-08-05T06:46:10.383Z,4.32
2023-08-05T06:49:12.846Z,4.50
2023-08-05T06:52:15.614Z,4.90
2023-08-05T06:55:21.222Z,3.93
2023-08-05T06:58:23.548Z,4.60
2023-08-05T07:01:25.857Z,4.63
2023-08-05T07:04:29.710Z,4.78
2023-08-05T07:07:32.713Z,5.18
2023-08-05T07:10:34.970Z,5.73
2023-08-05T07:13:37.215Z,4.20
2023-08-05T07:16:39.419Z,4.80
2023-08-05T07:19:41.704Z,4.97
2023-08-05T07:22:43.961Z,4.90
2023-08-05T07:25:46.236Z,4.00
2023-08-05T07:28:50.075Z,5.20
2023-08-05T07:31:52.541Z,8.07
2023-08-05T07:34:55.728Z,4.75
2023-08-05T07:37:58.020Z,4.30
2023-08-05T07:41:00.799Z,4.47
2023-08-05T07:44:04.696Z,6.07
2023-08-05T07:47:08.771Z,4.93
2023-08-05T07:50:11.697Z,4.18
2023-08-05T07:53:14.918Z,4.50
2023-08-05T07:56:17.604Z,4.50
2023-08-05T07:59:21.401Z,5.43
2023-08-05T08:02:24.395Z,4.90
2023-08-05T08:05:27.681Z,5.20
2023-08-05T08:08:29.889Z,5.43
2023-08-05T08:11:32.147Z,5.53
2023-08-05T08:14:34.562Z,4.93
2023-08-05T08:17:39.200Z,5.10
2023-08-05T08:20:52.387Z,4.97
2023-08-05T08:23:54.650Z,5.55
2023-08-05T08:26:56.865Z,5.20
2023-08-05T08:29:59.053Z,4.93
2023-08-05T08:33:01.632Z,5.50
2023-08-05T08:36:05.378Z,6.57
2023-08-05T08:39:07.604Z,6.15
2023-08-05T08:42:09.950Z,6.23
2023-08-05T08:45:16.273Z,5.73
2023-08-05T08:48:19.361Z,6.32
2023-08-05T08:51:22.934Z,6.50
2023-08-05T08:54:27.944Z,6.28
2023-08-05T08:57:30.668Z,5.73
2023-08-05T09:00:35.886Z,5.73
2023-08-05T09:03:38.326Z,6.35
2023-08-05T09:06:40.991Z,5.80
2023-08-05T09:09:47.880Z,5.38
2023-08-05T09:12:50.172Z,5.57
2023-08-05T09:15:53.254Z,6.00
2023-08-05T09:18:59.341Z,4.90
2023-08-05T09:22:03.612Z,5.90
2023-08-05T09:25:08.513Z,5.75
2023-08-05T09:28:11.550Z,5.97
2023-08-05T09:31:14.506Z,5.97
2023-08-05T09:34:16.770Z,7.68
2023-08-05T09:37:20.413Z,6.13
2023-08-05T09:40:30.381Z,5.50
2023-08-05T09:43:35.601Z,6.23
2023-08-05T09:46:49.140Z,5.80
2023-08-05T09:49:53.553Z,6.93
2023-08-05T09:52:57.435Z,6.05
2023-08-05T09:56:00.266Z,6.47
2023-08-05T09:59:03.594Z,5.97
2023-08-05T10:02:07.339Z,5.80
2023-08-05T10:05:11.202Z,6.45
2023-08-05T10:08:14.854Z,5.78
2023-08-05T10:11:17.376Z,5.53
2023-08-05T10:14:20.512Z,5.93
2023-08-05T10:17:22.936Z,6.43
2023-08-05T10:20:25.357Z,5.78
2023-08-05T10:23:27.587Z,5.65
2023-08-05T10:26:48.300Z,6.05
2023-08-05T10:29:56.090Z,6.20
2023-08-05T10:32:59.714Z,6.70
2023-08-05T10:36:04.882Z,7.22
2023-08-05T10:39:40.726Z,7.05
2023-08-05T10:42:43.219Z,6.03
2023-08-05T10:45:45.505Z,12.30
2023-08-05T10:48:51.036Z,6.17
2023-08-05T10:51:53.668Z,6.28
2023-08-05T10:54:56.350Z,6.50
2023-08-05T10:57:59.774Z,5.45
2023-08-05T11:01:06.760Z,6.07
2023-08-05T11:04:27.772Z,5.10
2023-08-05T11:07:31.918Z,6.55
2023-08-05T11:10:35.257Z,6.30
2023-08-05T11:13:39.341Z,7.13
2023-08-05T11:16:46.083Z,6.27
2023-08-05T11:19:52.434Z,6.10
2023-08-05T11:22:54.692Z,6.50
2023-08-05T11:26:00.606Z,6.70
2023-08-05T11:29:02.918Z,6.32
2023-08-05T11:32:05.222Z,6.67
2023-08-05T11:35:07.822Z,6.90
2023-08-05T11:38:10.423Z,6.45
2023-08-05T11:41:12.706Z,7.70
2023-08-05T11:44:18.435Z,6.43
2023-08-05T11:47:20.758Z,6.20
2023-08-05T11:50:34.832Z,6.13
2023-08-05T11:53:37.039Z,6.63
2023-08-05T11:56:39.282Z,6.88
2023-08-05T11:59:49.306Z,7.10
2023-08-05T12:02:53.077Z,7.47
2023-08-05T12:06:01.562Z,7.10
2023-08-05T12:09:06.169Z,7.47
2023-08-05T12:12:17.010Z,8.25
2023-08-05T12:15:29.350Z,7.50
2023-08-05T12:18:32.305Z,7.67
2023-08-05T12:24:41.905Z,7.75
2023-08-05T12:27:44.756Z,8.88
2023-08-05T12:30:47.008Z,8.93
2023-08-05T12:33:49.308Z,9.33
2023-08-05T12:36:51.499Z,9.30
2023-08-05T12:39:53.723Z,8.85
2023-08-05T12:42:56.220Z,9.88
2023-08-05T12:45:58.638Z,10.73
2023-08-05T12:49:00.978Z,9.70
2023-08-05T12:52:07.081Z,11.70
2023-08-05T12:55:09.794Z,11.73
2023-08-05T12:58:12.344Z,11.00
2023-08-05T13:01:14.677Z,11.05
2023-08-05T13:04:16.927Z,12.00
2023-08-05T13:07:19.574Z,11.97
2023-08-05T13:10:21.899Z,15.50
2023-08-05T13:13:25.826Z,14.73
2023-08-05T13:16:28.802Z,13.07
2023-08-05T13:19:31.163Z,13.00
2023-08-05T13:22:33.537Z,13.23
2023-08-05T13:25:35.785Z,13.52
2023-08-05T13:28:38.002Z,13.93
2023-08-05T13:31:40.343Z,13.27
2023-08-05T13:34:42.676Z,14.43
2023-08-05T13:37:44.989Z,13.47
2023-08-05T13:40:56.816Z,14.50
2023-08-05T13:43:59.284Z,14.48
2023-08-05T13:47:01.698Z,14.25
2023-08-05T13:50:05.049Z,14.27
2023-08-05T13:53:07.567Z,15.00
2023-08-05T13:56:09.840Z,15.18
2023-08-05T13:59:12.155Z,16.08
2023-08-05T14:02:14.412Z,14.70
2023-08-05T14:05:16.767Z,14.73
2023-08-05T14:08:19.653Z,14.97
2023-08-05T14:11:21.869Z,15.35
2023-08-05T14:14:26.709Z,15.50
2023-08-05T14:17:30.358Z,14.55
2023-08-05T14:20:32.745Z,16.60
2023-08-05T14:23:34.981Z,15.17
2023-08-05T14:26:37.234Z,14.88
2023-08-05T14:29:39.622Z,19.48
2023-08-05T14:32:41.859Z,18.33
2023-08-05T14:35:44.139Z,18.07
2023-08-05T14:38:46.393Z,16.77
2023-08-05T14:41:49.100Z,17.58
2023-08-05T14:44:51.712Z,15.90
2023-08-05T14:47:57.945Z,17.90
2023-08-05T14:51:03.897Z,16.73
2023-08-05T14:54:06.224Z,13.90
2023-08-05T14:57:08.446Z,14.23
2023-08-05T15:00:12.010Z,15.77
2023-08-05T15:03:15.615Z,15.35
2023-08-05T15:06:19.341Z,14.33
2023-08-05T15:09:21.679Z,14.00
2023-08-05T15:12:24.161Z,16.00
2023-08-05T15:15:26.391Z,12.77
2023-08-05T15:18:28.655Z,14.27
2023-08-05T15:21:31.714Z,13.03
2023-08-05T15:24:34.483Z,11.77
2023-08-05T15:27:36.790Z,12.07
2023-08-05T15:30:39.473Z,11.55
2023-08-05T15:33:41.723Z,11.00
2023-08-05T15:36:45.617Z,11.20
2023-08-05T15:39:48.147Z,10.80
2023-08-05T15:42:50.580Z,10.40
2023-08-05T15:45:57.209Z,10.93
2023-08-05T15:49:00.254Z,11.02
2023-08-05T15:52:03.017Z,11.93
2023-08-05T15:55:06.368Z,10.13
2023-08-05T15:58:08.841Z,10.30
2023-08-05T16:01:11.804Z,10.23
2023-08-05T16:04:14.873Z,10.98
2023-08-05T16:07:17.930Z,11.47
2023-08-05T16:10:21.341Z,10.50
2023-08-05T16:13:24.300Z,11.10
2023-08-05T16:16:27.109Z,12.32
2023-08-05T16:19:29.885Z,12.23
2023-08-05T16:22:32.735Z,12.03
2023-08-05T16:25:35.480Z,12.67
2023-08-05T16:28:38.347Z,13.90
2023-08-05T16:31:40.802Z,15.07
2023-08-05T16:34:43.762Z,16.13
2023-08-05T16:37:46.280Z,15.60
2023-08-05T16:40:49.008Z,16.73
2023-08-05T16:43:52.493Z,17.48
2023-08-05T16:46:56.733Z,18.40
2023-08-05T16:49:59.877Z,19.73
2023-08-05T16:53:02.396Z,20.33
2023-08-05T16:56:05.811Z,22.93
2023-08-05T16:59:10.693Z,21.45
2023-08-05T17:02:12.932Z,27.50
2023-08-05T17:05:16.315Z,32.75
2023-08-05T17:08:19.792Z,26.07
2023-08-05T17:11:23.236Z,27.43
2023-08-05T17:14:26.717Z,31.73
2023-08-05T17:17:29.670Z,33.80
2023-08-05T17:20:33.551Z,38.95
2023-08-05T17:23:37.177Z,41.30
2023-08-05T17:26:40.772Z,43.53
2023-08-05T17:29:46.430Z,40.72
2023-08-05T17:32:49.940Z,41.83
2023-08-05T17:35:56.509Z,41.40
2023-08-05T17:38:59.707Z,39.20
2023-08-05T17:42:01.960Z,40.50
2023-08-05T17:45:04.995Z,46.60
2023-08-05T17:48:08.748Z,47.72
2023-08-05T17:51:11.326Z,48.30
2023-08-05T17:54:14.358Z,49.00
2023-08-05T17:57:17.160Z,49.60
2023-08-05T18:00:20.117Z,51.83
2023-08-05T18:03:23.087Z,44.83
2023-08-05T18:06:25.865Z,46.72
2023-08-05T18:09:28.659Z,44.43
2023-08-05T18:12:32.131Z,47.63
2023-08-05T18:15:35.216Z,46.60
2023-08-05T18:18:38.125Z,52.40
2023-08-05T18:21:41.987Z,54.72
2023-08-05T18:24:45.147Z,49.90
2023-08-05T18:27:47.667Z,49.03
2023-08-05T18:30:50.164Z,46.42
2023-08-05T18:33:54.621Z,47.85
2023-08-05T18:36:57.609Z,49.13
2023-08-05T18:40:00.848Z,52.90
2023-08-05T18:43:03.892Z,50.87
2023-08-05T18:46:08.154Z,52.45
2023-08-05T18:49:10.820Z,55.60
2023-08-05T18:52:13.247Z,54.70
2023-08-05T18:55:15.871Z,58.73
2023-08-05T18:58:18.375Z,55.13
2023-08-05T19:01:21.132Z,56.03
2023-08-05T19:04:23.638Z,56.92
2023-08-05T19:07:26.447Z,60.63
2023-08-05T19:10:28.965Z,61.07
2023-08-05T19:13:31.411Z,58.20
2023-08-05T19:16:34.430Z,58.17
2023-08-05T19:19:38.406Z,58.47
2023-08-05T19:22:44.448Z,55.85
2023-08-05T19:25:47.471Z,55.77
2023-08-05T19:28:51.731Z,58.57
2023-08-05T19:31:55.189Z,58.20
2023-08-05T19:34:59.962Z,51.75
2023-08-05T19:38:04.454Z,52.00
2023-08-05T19:41:07.801Z,57.47
2023-08-05T19:44:10.753Z,59.03
2023-08-05T19:47:13.590Z,57.47
2023-08-05T19:50:16.377Z,53.38
2023-08-05T19:53:19.064Z,57.97
2023-08-05T19:56:21.723Z,55.10
2023-08-05T19:59:24.474Z,57.33
2023-08-05T20:02:26.889Z,55.95
2023-08-05T20:05:32.667Z,57.35
2023-08-05T20:08:35.690Z,56.20
2023-08-05T20:11:37.947Z,50.73
2023-08-05T20:14:41.069Z,49.00
2023-08-05T20:17:43.956Z,56.08
2023-08-05T20:20:47.036Z,53.85
2023-08-05T20:23:50.058Z,56.13
2023-08-05T20:26:52.715Z,49.53
2023-08-05T20:29:55.135Z,48.47
2023-08-05T20:32:57.797Z,50.80
2023-08-05T20:36:01.117Z,44.63
2023-08-05T20:39:04.693Z,41.88
2023-08-05T20:42:07.736Z,37.53
2023-08-05T20:45:10.516Z,36.03
2023-08-05T20:48:12.817Z,31.83
2023-08-05T20:51:18.825Z,33.22
2023-08-05T20:54:21.326Z,29.33
2023-08-05T20:57:23.849Z,29.17
2023-08-05T21:00:26.077Z,26.20
2023-08-05T21:03:28.412Z,23.60
2023-08-05T21:06:30.722Z,21.77
2023-08-05T21:09:33.017Z,24.20
2023-08-05T21:12:35.234Z,22.57
2023-08-05T21:15:42.952Z,20.40
2023-08-05T21:18:47.889Z,23.48
2023-08-05T21:21:50.673Z,19.45
2023-08-05T21:24:53.342Z,19.23
2023-08-05T21:27:55.598Z,21.50
2023-08-05T21:30:59.692Z,23.67
2023-08-05T21:34:02.004Z,20.85
2023-08-05T21:37:05.459Z,18.63
2023-08-05T21:40:09.183Z,18.23
2023-08-05T21:43:12.386Z,18.10
2023-08-05T21:46:14.826Z,16.37
2023-08-05T21:49:17.691Z,18.20
2023-08-05T21:52:20.792Z,18.95
2023-08-05T21:55:25.219Z,16.67
2023-08-05T21:58:28.314Z,18.03
2023-08-05T22:01:31.541Z,18.47
2023-08-05T22:04:34.924Z,15.52
2023-08-05T22:07:38.000Z,16.95
2023-08-05T22:10:41.193Z,16.33
2023-08-05T22:13:44.717Z,16.70
2023-08-05T22:16:47.797Z,16.10
2023-08-05T22:19:50.989Z,15.38
2023-08-05T22:22:53.626Z,14.73
2023-08-05T22:25:55.828Z,13.90
2023-08-05T22:28:58.058Z,14.33
2023-08-05T22:32:00.288Z,12.50
2023-08-05T22:35:03.167Z,14.10
2023-08-05T22:38:05.532Z,14.88
2023-08-05T22:41:07.901Z,13.02
2023-08-05T22:44:10.144Z,13.97
2023-08-05T22:47:12.468Z,13.53
2023-08-05T22:50:15.019Z,13.40
2023-08-05T22:53:17.965Z,13.40
2023-08-05T22:56:21.463Z,13.40
2023-08-05T22:59:24.558Z,13.93
2023-08-05T23:02:27.865Z,12.33
2023-08-05T23:05:31.047Z,14.63
2023-08-05T23:08:34.145Z,15.30
2023-08-05T23:11:37.239Z,14.38
2023-08-05T23:14:40.341Z,14.90
2023-08-05T23:17:44.175Z,18.53
2023-08-05T23:20:47.330Z,23.83
2023-08-05T23:23:50.421Z,27.77
2023-08-05T23:26:53.629Z,27.13
2023-08-05T23:29:56.730Z,27.50
2023-08-05T23:32:59.880Z,26.70
2023-08-05T23:36:02.913Z,26.17
2023-08-05T23:39:05.400Z,25.52
2023-08-05T23:42:07.666Z,25.70
2023-08-05T23:45:14.547Z,22.90
2023-08-05T23:48:18.046Z,20.00
2023-08-05T23:51:20.892Z,19.80
2023-08-05T23:54:26.214Z,22.08
2023-08-05T23:57:28.454Z,23.92
